sensor_id;sensor_type;location;lat;lon;timestamp;P1;durP1;ratioP1;P2;durP2;ratioP2
5475;SDS011;2760;50.000;9.194;2023-04-24T00:02:00;2.80;;;1.60;;
5475;SDS011;2760;50.000;9.194;2023-04-24T00:04:28;2.43;;;1.40;;
5475;SDS011;2760;50.000;9.194;2023-04-24T00:06:56;1.53;;;1.43;;
5475;SDS011;2760;50.000;9.194;2023-04-24T00:09:29;1.53;;;1.43;;
5475;SDS011;2760;50.000;9.194;2023-04-24T00:11:56;1.40;;;1.30;;
5475;SDS011;2760;50.000;9.194;2023-04-24T00:14:23;1.53;;;1.43;;
5475;SDS011;2760;50.000;9.194;2023-04-24T00:16:50;1.30;;;1.20;;
5475;SDS011;2760;50.000;9.194;2023-04-24T00:19:17;5.03;;;1.70;;
5475;SDS011;2760;50.000;9.194;2023-04-24T00:21:46;1.33;;;1.23;;
5475;SDS011;2760;50.000;9.194;2023-04-24T00:24:15;2.50;;;1.67;;
5475;SDS011;2760;50.000;9.194;2023-04-24T00:26:43;5.20;;;1.50;;
5475;SDS011;2760;50.000;9.194;2023-04-24T00:29:11;2.90;;;1.27;;
5475;SDS011;2760;50.000;9.194;2023-04-24T00:31:38;4.90;;;1.30;;
5475;SDS011;2760;50.000;9.194;2023-04-24T00:34:06;6.63;;;1.40;;
5475;SDS011;2760;50.000;9.194;2023-04-24T00:36:33;2.80;;;1.10;;
5475;SDS011;2760;50.000;9.194;2023-04-24T00:39:00;2.70;;;1.50;;
5475;SDS011;2760;50.000;9.194;2023-04-24T00:41:27;2.17;;;1.60;;
5475;SDS011;2760;50.000;9.194;2023-04-24T00:43:57;2.77;;;1.13;;
5475;SDS011;2760;50.000;9.194;2023-04-24T00:46:25;1.67;;;1.47;;
5475;SDS011;2760;50.000;9.194;2023-04-24T00:48:52;2.40;;;1.40;;
5475;SDS011;2760;50.000;9.194;2023-04-24T00:51:19;1.53;;;1.30;;
5475;SDS011;2760;50.000;9.194;2023-04-24T00:53:46;4.63;;;1.43;;
5475;SDS011;2760;50.000;9.194;2023-04-24T00:56:13;1.83;;;1.73;;
5475;SDS011;2760;50.000;9.194;2023-04-24T00:58:41;2.50;;;1.47;;
5475;SDS011;2760;50.000;9.194;2023-04-24T01:01:10;2.00;;;1.20;;
5475;SDS011;2760;50.000;9.194;2023-04-24T01:03:37;1.77;;;1.67;;
5475;SDS011;2760;50.000;9.194;2023-04-24T01:06:05;4.50;;;1.80;;
5475;SDS011;2760;50.000;9.194;2023-04-24T01:08:33;1.67;;;1.40;;
5475;SDS011;2760;50.000;9.194;2023-04-24T01:11:03;2.80;;;1.30;;
5475;SDS011;2760;50.000;9.194;2023-04-24T01:13:31;3.07;;;1.40;;
5475;SDS011;2760;50.000;9.194;2023-04-24T01:15:59;2.13;;;1.20;;
5475;SDS011;2760;50.000;9.194;2023-04-24T01:18:28;1.30;;;1.20;;
5475;SDS011;2760;50.000;9.194;2023-04-24T01:20:57;1.63;;;1.53;;
5475;SDS011;2760;50.000;9.194;2023-04-24T01:23:27;4.10;;;1.30;;
5475;SDS011;2760;50.000;9.194;2023-04-24T01:25:54;2.50;;;1.37;;
5475;SDS011;2760;50.000;9.194;2023-04-24T01:28:21;1.77;;;1.67;;
5475;SDS011;2760;50.000;9.194;2023-04-24T01:30:48;8.30;;;1.37;;
5475;SDS011;2760;50.000;9.194;2023-04-24T01:33:16;2.00;;;1.50;;
5475;SDS011;2760;50.000;9.194;2023-04-24T01:35:43;11.80;;;1.97;;
5475;SDS011;2760;50.000;9.194;2023-04-24T01:38:10;2.30;;;1.47;;
5475;SDS011;2760;50.000;9.194;2023-04-24T01:40:39;1.60;;;1.23;;
5475;SDS011;2760;50.000;9.194;2023-04-24T01:43:06;3.93;;;1.30;;
5475;SDS011;2760;50.000;9.194;2023-04-24T01:45:34;5.10;;;1.80;;
5475;SDS011;2760;50.000;9.194;2023-04-24T01:48:03;1.40;;;1.30;;
5475;SDS011;2760;50.000;9.194;2023-04-24T01:50:30;2.70;;;1.70;;
5475;SDS011;2760;50.000;9.194;2023-04-24T01:52:57;1.70;;;1.40;;
5475;SDS011;2760;50.000;9.194;2023-04-24T01:55:25;1.87;;;1.40;;
5475;SDS011;2760;50.000;9.194;2023-04-24T01:57:53;3.10;;;1.50;;
5475;SDS011;2760;50.000;9.194;2023-04-24T02:00:22;1.90;;;1.33;;
5475;SDS011;2760;50.000;9.194;2023-04-24T02:02:50;3.20;;;1.30;;
5475;SDS011;2760;50.000;9.194;2023-04-24T02:05:17;2.17;;;1.10;;
5475;SDS011;2760;50.000;9.194;2023-04-24T02:07:45;1.70;;;1.13;;
5475;SDS011;2760;50.000;9.194;2023-04-24T02:10:12;3.53;;;1.47;;
5475;SDS011;2760;50.000;9.194;2023-04-24T02:12:42;3.70;;;1.10;;
5475;SDS011;2760;50.000;9.194;2023-04-24T02:15:12;2.50;;;1.20;;
5475;SDS011;2760;50.000;9.194;2023-04-24T02:17:39;2.10;;;1.10;;
5475;SDS011;2760;50.000;9.194;2023-04-24T02:20:06;1.43;;;1.33;;
5475;SDS011;2760;50.000;9.194;2023-04-24T02:22:34;2.13;;;1.50;;
5475;SDS011;2760;50.000;9.194;2023-04-24T02:25:01;2.60;;;1.63;;
5475;SDS011;2760;50.000;9.194;2023-04-24T02:27:29;4.00;;;1.50;;
5475;SDS011;2760;50.000;9.194;2023-04-24T02:29:57;2.00;;;1.40;;
5475;SDS011;2760;50.000;9.194;2023-04-24T02:32:27;7.07;;;1.10;;
5475;SDS011;2760;50.000;9.194;2023-04-24T02:34:54;1.43;;;1.00;;
5475;SDS011;2760;50.000;9.194;2023-04-24T02:37:21;2.23;;;1.50;;
5475;SDS011;2760;50.000;9.194;2023-04-24T02:39:48;2.60;;;1.10;;
5475;SDS011;2760;50.000;9.194;2023-04-24T02:42:15;3.20;;;1.20;;
5475;SDS011;2760;50.000;9.194;2023-04-24T02:44:42;5.43;;;1.30;;
5475;SDS011;2760;50.000;9.194;2023-04-24T02:47:10;4.43;;;1.20;;
5475;SDS011;2760;50.000;9.194;2023-04-24T02:49:38;1.33;;;1.23;;
5475;SDS011;2760;50.000;9.194;2023-04-24T02:52:05;5.23;;;1.50;;
5475;SDS011;2760;50.000;9.194;2023-04-24T02:54:32;1.63;;;1.30;;
5475;SDS011;2760;50.000;9.194;2023-04-24T02:56:59;1.43;;;0.90;;
5475;SDS011;2760;50.000;9.194;2023-04-24T02:59:28;2.00;;;1.20;;
5475;SDS011;2760;50.000;9.194;2023-04-24T03:01:55;2.43;;;1.50;;
5475;SDS011;2760;50.000;9.194;2023-04-24T03:04:22;1.13;;;1.03;;
5475;SDS011;2760;50.000;9.194;2023-04-24T03:06:51;1.20;;;1.10;;
5475;SDS011;2760;50.000;9.194;2023-04-24T03:09:19;2.10;;;1.20;;
5475;SDS011;2760;50.000;9.194;2023-04-24T03:11:46;2.90;;;1.60;;
5475;SDS011;2760;50.000;9.194;2023-04-24T03:14:14;9.33;;;1.50;;
5475;SDS011;2760;50.000;9.194;2023-04-24T03:16:41;5.90;;;1.47;;
5475;SDS011;2760;50.000;9.194;2023-04-24T03:19:09;2.50;;;1.60;;
5475;SDS011;2760;50.000;9.194;2023-04-24T03:21:45;4.50;;;1.60;;
5475;SDS011;2760;50.000;9.194;2023-04-24T03:24:13;1.30;;;1.20;;
5475;SDS011;2760;50.000;9.194;2023-04-24T03:26:40;1.77;;;1.10;;
5475;SDS011;2760;50.000;9.194;2023-04-24T03:29:25;4.30;;;1.63;;
5475;SDS011;2760;50.000;9.194;2023-04-24T03:31:52;1.40;;;1.30;;
5475;SDS011;2760;50.000;9.194;2023-04-24T03:34:19;3.53;;;1.30;;
5475;SDS011;2760;50.000;9.194;2023-04-24T03:36:46;1.60;;;1.30;;
5475;SDS011;2760;50.000;9.194;2023-04-24T03:39:15;1.70;;;1.37;;
5475;SDS011;2760;50.000;9.194;2023-04-24T03:41:49;2.67;;;1.30;;
5475;SDS011;2760;50.000;9.194;2023-04-24T03:44:21;4.07;;;1.37;;
5475;SDS011;2760;50.000;9.194;2023-04-24T03:46:49;2.20;;;1.33;;
5475;SDS011;2760;50.000;9.194;2023-04-24T03:49:19;3.20;;;1.53;;
5475;SDS011;2760;50.000;9.194;2023-04-24T03:51:47;2.10;;;1.30;;
5475;SDS011;2760;50.000;9.194;2023-04-24T03:54:24;12.50;;;1.90;;
5475;SDS011;2760;50.000;9.194;2023-04-24T03:56:53;3.43;;;1.60;;
5475;SDS011;2760;50.000;9.194;2023-04-24T03:59:21;1.37;;;1.23;;
5475;SDS011;2760;50.000;9.194;2023-04-24T04:02:01;2.07;;;1.50;;
5475;SDS011;2760;50.000;9.194;2023-04-24T04:04:36;2.37;;;1.50;;
5475;SDS011;2760;50.000;9.194;2023-04-24T04:07:04;2.37;;;1.37;;
5475;SDS011;2760;50.000;9.194;2023-04-24T04:09:33;1.27;;;1.13;;
5475;SDS011;2760;50.000;9.194;2023-04-24T04:12:00;2.30;;;1.27;;
5475;SDS011;2760;50.000;9.194;2023-04-24T04:14:28;4.73;;;1.53;;
5475;SDS011;2760;50.000;9.194;2023-04-24T04:16:56;2.10;;;1.33;;
5475;SDS011;2760;50.000;9.194;2023-04-24T04:19:23;2.20;;;1.40;;
5475;SDS011;2760;50.000;9.194;2023-04-24T04:21:51;3.80;;;1.63;;
5475;SDS011;2760;50.000;9.194;2023-04-24T04:24:34;2.40;;;2.20;;
5475;SDS011;2760;50.000;9.194;2023-04-24T04:27:03;1.93;;;1.40;;
5475;SDS011;2760;50.000;9.194;2023-04-24T04:29:37;3.37;;;1.47;;
5475;SDS011;2760;50.000;9.194;2023-04-24T04:32:08;5.60;;;1.60;;
5475;SDS011;2760;50.000;9.194;2023-04-24T04:34:35;4.57;;;1.83;;
5475;SDS011;2760;50.000;9.194;2023-04-24T04:37:06;1.47;;;1.30;;
5475;SDS011;2760;50.000;9.194;2023-04-24T04:39:50;2.10;;;1.63;;
5475;SDS011;2760;50.000;9.194;2023-04-24T04:42:22;2.63;;;2.13;;
5475;SDS011;2760;50.000;9.194;2023-04-24T04:44:49;8.30;;;1.80;;
5475;SDS011;2760;50.000;9.194;2023-04-24T04:47:21;2.10;;;1.83;;
5475;SDS011;2760;50.000;9.194;2023-04-24T04:49:50;5.40;;;2.00;;
5475;SDS011;2760;50.000;9.194;2023-04-24T04:52:20;2.17;;;1.77;;
5475;SDS011;2760;50.000;9.194;2023-04-24T04:54:56;2.13;;;2.03;;
5475;SDS011;2760;50.000;9.194;2023-04-24T04:57:30;2.67;;;1.60;;
5475;SDS011;2760;50.000;9.194;2023-04-24T04:59:58;1.93;;;1.60;;
5475;SDS011;2760;50.000;9.194;2023-04-24T05:02:40;2.57;;;1.80;;
5475;SDS011;2760;50.000;9.194;2023-04-24T05:05:07;2.50;;;2.30;;
5475;SDS011;2760;50.000;9.194;2023-04-24T05:07:36;4.30;;;2.20;;
5475;SDS011;2760;50.000;9.194;2023-04-24T05:10:06;3.63;;;2.10;;
5475;SDS011;2760;50.000;9.194;2023-04-24T05:12:34;2.07;;;1.90;;
5475;SDS011;2760;50.000;9.194;2023-04-24T05:15:02;2.37;;;1.67;;
5475;SDS011;2760;50.000;9.194;2023-04-24T05:17:31;3.57;;;2.30;;
5475;SDS011;2760;50.000;9.194;2023-04-24T05:19:58;3.53;;;2.33;;
5475;SDS011;2760;50.000;9.194;2023-04-24T05:22:26;3.00;;;2.13;;
5475;SDS011;2760;50.000;9.194;2023-04-24T05:24:53;4.03;;;2.57;;
5475;SDS011;2760;50.000;9.194;2023-04-24T05:27:50;3.03;;;2.83;;
5475;SDS011;2760;50.000;9.194;2023-04-24T05:30:18;5.40;;;2.87;;
5475;SDS011;2760;50.000;9.194;2023-04-24T05:32:53;2.50;;;2.30;;
5475;SDS011;2760;50.000;9.194;2023-04-24T05:35:20;3.47;;;2.50;;
5475;SDS011;2760;50.000;9.194;2023-04-24T05:37:47;4.03;;;3.13;;
5475;SDS011;2760;50.000;9.194;2023-04-24T05:40:14;3.10;;;2.80;;
5475;SDS011;2760;50.000;9.194;2023-04-24T05:42:41;4.90;;;2.80;;
5475;SDS011;2760;50.000;9.194;2023-04-24T05:45:10;3.30;;;3.00;;
5475;SDS011;2760;50.000;9.194;2023-04-24T05:47:41;2.97;;;2.77;;
5475;SDS011;2760;50.000;9.194;2023-04-24T05:50:10;3.57;;;3.27;;
5475;SDS011;2760;50.000;9.194;2023-04-24T05:52:37;5.93;;;3.60;;
5475;SDS011;2760;50.000;9.194;2023-04-24T05:55:16;5.17;;;3.60;;
5475;SDS011;2760;50.000;9.194;2023-04-24T05:57:43;4.33;;;3.20;;
5475;SDS011;2760;50.000;9.194;2023-04-24T06:00:12;5.50;;;2.73;;
5475;SDS011;2760;50.000;9.194;2023-04-24T06:02:48;3.63;;;3.33;;
5475;SDS011;2760;50.000;9.194;2023-04-24T06:05:17;3.30;;;2.70;;
5475;SDS011;2760;50.000;9.194;2023-04-24T06:07:44;4.40;;;2.90;;
5475;SDS011;2760;50.000;9.194;2023-04-24T06:10:12;2.47;;;2.27;;
5475;SDS011;2760;50.000;9.194;2023-04-24T06:12:41;3.10;;;2.87;;
5475;SDS011;2760;50.000;9.194;2023-04-24T06:15:15;7.80;;;2.70;;
5475;SDS011;2760;50.000;9.194;2023-04-24T06:17:52;6.57;;;2.47;;
5475;SDS011;2760;50.000;9.194;2023-04-24T06:20:20;4.47;;;2.70;;
5475;SDS011;2760;50.000;9.194;2023-04-24T06:22:47;4.67;;;3.60;;
5475;SDS011;2760;50.000;9.194;2023-04-24T06:25:14;3.80;;;2.60;;
5475;SDS011;2760;50.000;9.194;2023-04-24T06:27:42;3.63;;;2.60;;
5475;SDS011;2760;50.000;9.194;2023-04-24T06:30:09;6.00;;;2.67;;
5475;SDS011;2760;50.000;9.194;2023-04-24T06:32:39;7.00;;;3.50;;
5475;SDS011;2760;50.000;9.194;2023-04-24T06:35:06;3.30;;;3.03;;
5475;SDS011;2760;50.000;9.194;2023-04-24T06:37:35;3.10;;;2.90;;
5475;SDS011;2760;50.000;9.194;2023-04-24T06:40:02;3.40;;;3.10;;
5475;SDS011;2760;50.000;9.194;2023-04-24T06:42:32;3.00;;;2.80;;
5475;SDS011;2760;50.000;9.194;2023-04-24T06:45:02;4.87;;;2.77;;
5475;SDS011;2760;50.000;9.194;2023-04-24T06:47:30;2.70;;;2.50;;
5475;SDS011;2760;50.000;9.194;2023-04-24T06:49:58;4.40;;;2.67;;
5475;SDS011;2760;50.000;9.194;2023-04-24T06:52:25;4.00;;;2.80;;
5475;SDS011;2760;50.000;9.194;2023-04-24T06:54:52;3.70;;;3.30;;
5475;SDS011;2760;50.000;9.194;2023-04-24T06:57:26;8.07;;;3.10;;
5475;SDS011;2760;50.000;9.194;2023-04-24T06:59:53;3.57;;;3.27;;
5475;SDS011;2760;50.000;9.194;2023-04-24T07:02:20;5.00;;;3.27;;
5475;SDS011;2760;50.000;9.194;2023-04-24T07:04:47;4.80;;;3.13;;
5475;SDS011;2760;50.000;9.194;2023-04-24T07:07:15;4.80;;;3.03;;
5475;SDS011;2760;50.000;9.194;2023-04-24T07:09:42;3.37;;;3.00;;
5475;SDS011;2760;50.000;9.194;2023-04-24T07:12:10;4.00;;;3.70;;
5475;SDS011;2760;50.000;9.194;2023-04-24T07:14:38;3.53;;;3.20;;
5475;SDS011;2760;50.000;9.194;2023-04-24T07:17:05;4.80;;;3.50;;
5475;SDS011;2760;50.000;9.194;2023-04-24T07:19:33;3.67;;;3.10;;
5475;SDS011;2760;50.000;9.194;2023-04-24T07:22:00;3.70;;;3.40;;
5475;SDS011;2760;50.000;9.194;2023-04-24T07:24:29;3.90;;;3.30;;
5475;SDS011;2760;50.000;9.194;2023-04-24T07:26:57;3.77;;;3.40;;
5475;SDS011;2760;50.000;9.194;2023-04-24T07:29:24;3.33;;;3.03;;
5475;SDS011;2760;50.000;9.194;2023-04-24T07:31:51;3.47;;;3.17;;
5475;SDS011;2760;50.000;9.194;2023-04-24T07:34:19;6.13;;;4.30;;
5475;SDS011;2760;50.000;9.194;2023-04-24T07:36:49;7.73;;;3.10;;
5475;SDS011;2760;50.000;9.194;2023-04-24T07:39:16;5.70;;;3.67;;
5475;SDS011;2760;50.000;9.194;2023-04-24T07:41:44;7.50;;;3.73;;
5475;SDS011;2760;50.000;9.194;2023-04-24T07:44:11;6.30;;;4.37;;
5475;SDS011;2760;50.000;9.194;2023-04-24T07:46:38;8.87;;;4.57;;
5475;SDS011;2760;50.000;9.194;2023-04-24T07:49:06;4.70;;;3.80;;
5475;SDS011;2760;50.000;9.194;2023-04-24T07:51:33;5.03;;;3.70;;
5475;SDS011;2760;50.000;9.194;2023-04-24T07:54:03;11.83;;;6.43;;
5475;SDS011;2760;50.000;9.194;2023-04-24T07:56:31;4.20;;;3.77;;
5475;SDS011;2760;50.000;9.194;2023-04-24T07:59:00;6.50;;;4.30;;
5475;SDS011;2760;50.000;9.194;2023-04-24T08:01:27;4.40;;;4.00;;
5475;SDS011;2760;50.000;9.194;2023-04-24T08:03:54;9.77;;;4.30;;
5475;SDS011;2760;50.000;9.194;2023-04-24T08:06:21;8.93;;;4.60;;
5475;SDS011;2760;50.000;9.194;2023-04-24T08:08:48;5.83;;;3.77;;
5475;SDS011;2760;50.000;9.194;2023-04-24T08:11:16;4.00;;;3.50;;
5475;SDS011;2760;50.000;9.194;2023-04-24T08:13:43;4.23;;;3.80;;
5475;SDS011;2760;50.000;9.194;2023-04-24T08:16:12;6.03;;;4.20;;
5475;SDS011;2760;50.000;9.194;2023-04-24T08:18:39;6.07;;;4.50;;
5475;SDS011;2760;50.000;9.194;2023-04-24T08:21:07;4.03;;;3.57;;
5475;SDS011;2760;50.000;9.194;2023-04-24T08:23:34;9.70;;;4.77;;
5475;SDS011;2760;50.000;9.194;2023-04-24T08:26:01;5.00;;;4.00;;
5475;SDS011;2760;50.000;9.194;2023-04-24T08:28:28;5.50;;;3.60;;
5475;SDS011;2760;50.000;9.194;2023-04-24T08:30:55;6.47;;;4.20;;
5475;SDS011;2760;50.000;9.194;2023-04-24T08:33:23;5.33;;;3.90;;
5475;SDS011;2760;50.000;9.194;2023-04-24T08:35:50;6.80;;;3.53;;
5475;SDS011;2760;50.000;9.194;2023-04-24T08:38:18;7.00;;;3.37;;
5475;SDS011;2760;50.000;9.194;2023-04-24T08:40:45;3.40;;;3.10;;
5475;SDS011;2760;50.000;9.194;2023-04-24T08:43:14;4.40;;;3.13;;
5475;SDS011;2760;50.000;9.194;2023-04-24T08:45:42;5.60;;;3.53;;
5475;SDS011;2760;50.000;9.194;2023-04-24T08:48:09;3.50;;;3.17;;
5475;SDS011;2760;50.000;9.194;2023-04-24T08:50:38;8.60;;;3.03;;
5475;SDS011;2760;50.000;9.194;2023-04-24T08:53:07;7.30;;;3.60;;
5475;SDS011;2760;50.000;9.194;2023-04-24T08:55:35;5.20;;;3.13;;
5475;SDS011;2760;50.000;9.194;2023-04-24T08:58:03;7.67;;;3.90;;
5475;SDS011;2760;50.000;9.194;2023-04-24T09:00:30;5.80;;;3.80;;
5475;SDS011;2760;50.000;9.194;2023-04-24T09:03:00;5.73;;;3.70;;
5475;SDS011;2760;50.000;9.194;2023-04-24T09:05:28;3.57;;;3.27;;
5475;SDS011;2760;50.000;9.194;2023-04-24T09:07:58;9.53;;;3.27;;
5475;SDS011;2760;50.000;9.194;2023-04-24T09:10:29;3.90;;;3.37;;
5475;SDS011;2760;50.000;9.194;2023-04-24T09:12:56;6.33;;;3.10;;
5475;SDS011;2760;50.000;9.194;2023-04-24T09:15:26;4.40;;;2.90;;
5475;SDS011;2760;50.000;9.194;2023-04-24T09:17:54;14.07;;;3.97;;
5475;SDS011;2760;50.000;9.194;2023-04-24T09:20:21;6.47;;;3.03;;
5475;SDS011;2760;50.000;9.194;2023-04-24T09:22:48;4.20;;;3.20;;
5475;SDS011;2760;50.000;9.194;2023-04-24T09:25:22;10.60;;;3.50;;
5475;SDS011;2760;50.000;9.194;2023-04-24T09:27:53;3.93;;;3.53;;
5475;SDS011;2760;50.000;9.194;2023-04-24T09:30:21;3.00;;;2.70;;
5475;SDS011;2760;50.000;9.194;2023-04-24T09:32:48;3.10;;;2.47;;
5475;SDS011;2760;50.000;9.194;2023-04-24T09:35:16;3.20;;;2.90;;
5475;SDS011;2760;50.000;9.194;2023-04-24T09:37:44;3.90;;;2.70;;
5475;SDS011;2760;50.000;9.194;2023-04-24T09:40:15;3.40;;;3.10;;
5475;SDS011;2760;50.000;9.194;2023-04-24T09:42:44;3.20;;;2.97;;
5475;SDS011;2760;50.000;9.194;2023-04-24T09:45:12;6.60;;;3.20;;
5475;SDS011;2760;50.000;9.194;2023-04-24T09:47:39;4.10;;;3.13;;
5475;SDS011;2760;50.000;9.194;2023-04-24T09:50:11;11.87;;;3.87;;
5475;SDS011;2760;50.000;9.194;2023-04-24T09:52:40;7.13;;;3.70;;
5475;SDS011;2760;50.000;9.194;2023-04-24T09:55:16;3.70;;;3.20;;
5475;SDS011;2760;50.000;9.194;2023-04-24T09:57:52;4.47;;;3.63;;
5475;SDS011;2760;50.000;9.194;2023-04-24T10:00:25;3.97;;;3.00;;
5475;SDS011;2760;50.000;9.194;2023-04-24T10:02:56;3.40;;;3.10;;
5475;SDS011;2760;50.000;9.194;2023-04-24T10:05:25;3.10;;;2.80;;
5475;SDS011;2760;50.000;9.194;2023-04-24T10:07:58;3.73;;;3.00;;
5475;SDS011;2760;50.000;9.194;2023-04-24T10:10:28;2.93;;;2.70;;
5475;SDS011;2760;50.000;9.194;2023-04-24T10:12:56;3.40;;;3.00;;
5475;SDS011;2760;50.000;9.194;2023-04-24T10:15:24;3.30;;;3.00;;
5475;SDS011;2760;50.000;9.194;2023-04-24T10:17:52;3.17;;;2.87;;
5475;SDS011;2760;50.000;9.194;2023-04-24T10:20:20;4.33;;;3.47;;
5475;SDS011;2760;50.000;9.194;2023-04-24T10:22:49;3.47;;;2.80;;
5475;SDS011;2760;50.000;9.194;2023-04-24T10:25:18;11.03;;;3.17;;
5475;SDS011;2760;50.000;9.194;2023-04-24T10:27:47;3.63;;;2.90;;
5475;SDS011;2760;50.000;9.194;2023-04-24T10:30:16;3.43;;;2.90;;
5475;SDS011;2760;50.000;9.194;2023-04-24T10:32:44;6.23;;;3.60;;
5475;SDS011;2760;50.000;9.194;2023-04-24T10:35:11;7.17;;;2.97;;
5475;SDS011;2760;50.000;9.194;2023-04-24T10:37:41;3.50;;;3.17;;
5475;SDS011;2760;50.000;9.194;2023-04-24T10:40:11;2.97;;;2.67;;
5475;SDS011;2760;50.000;9.194;2023-04-24T10:42:42;3.63;;;3.30;;
5475;SDS011;2760;50.000;9.194;2023-04-24T10:45:17;5.53;;;3.40;;
5475;SDS011;2760;50.000;9.194;2023-04-24T10:47:53;3.83;;;2.93;;
5475;SDS011;2760;50.000;9.194;2023-04-24T10:50:23;3.40;;;3.10;;
5475;SDS011;2760;50.000;9.194;2023-04-24T10:52:52;6.47;;;3.13;;
5475;SDS011;2760;50.000;9.194;2023-04-24T10:55:40;4.00;;;2.93;;
5475;SDS011;2760;50.000;9.194;2023-04-24T10:58:08;3.93;;;3.53;;
5475;SDS011;2760;50.000;9.194;2023-04-24T11:00:38;3.77;;;3.40;;
5475;SDS011;2760;50.000;9.194;2023-04-24T11:03:08;3.27;;;2.97;;
5475;SDS011;2760;50.000;9.194;2023-04-24T11:05:51;5.00;;;3.10;;
5475;SDS011;2760;50.000;9.194;2023-04-24T11:08:22;3.20;;;2.90;;
5475;SDS011;2760;50.000;9.194;2023-04-24T11:10:59;7.90;;;3.03;;
5475;SDS011;2760;50.000;9.194;2023-04-24T11:14:00;3.90;;;3.50;;
5475;SDS011;2760;50.000;9.194;2023-04-24T11:16:29;4.53;;;3.17;;
5475;SDS011;2760;50.000;9.194;2023-04-24T11:19:02;3.10;;;2.90;;
5475;SDS011;2760;50.000;9.194;2023-04-24T11:21:31;7.03;;;2.97;;
5475;SDS011;2760;50.000;9.194;2023-04-24T11:26:53;6.47;;;3.00;;
5475;SDS011;2760;50.000;9.194;2023-04-24T11:29:22;6.50;;;2.70;;
5475;SDS011;2760;50.000;9.194;2023-04-24T11:31:50;3.77;;;2.20;;
5475;SDS011;2760;50.000;9.194;2023-04-24T11:34:17;3.03;;;2.83;;
5475;SDS011;2760;50.000;9.194;2023-04-24T11:36:45;5.63;;;4.90;;
5475;SDS011;2760;50.000;9.194;2023-04-24T11:39:13;5.37;;;4.23;;
5475;SDS011;2760;50.000;9.194;2023-04-24T11:41:41;4.00;;;3.57;;
5475;SDS011;2760;50.000;9.194;2023-04-24T11:44:09;9.33;;;4.13;;
5475;SDS011;2760;50.000;9.194;2023-04-24T11:46:36;8.00;;;4.37;;
5475;SDS011;2760;50.000;9.194;2023-04-24T11:49:06;7.47;;;4.13;;
5475;SDS011;2760;50.000;9.194;2023-04-24T11:51:33;8.70;;;4.27;;
5475;SDS011;2760;50.000;9.194;2023-04-24T11:54:01;5.17;;;4.67;;
5475;SDS011;2760;50.000;9.194;2023-04-24T11:56:28;5.40;;;3.90;;
5475;SDS011;2760;50.000;9.194;2023-04-24T11:58:55;5.13;;;3.60;;
5475;SDS011;2760;50.000;9.194;2023-04-24T12:01:22;3.83;;;3.50;;
5475;SDS011;2760;50.000;9.194;2023-04-24T12:03:49;5.97;;;4.03;;
5475;SDS011;2760;50.000;9.194;2023-04-24T12:06:18;3.83;;;3.43;;
5475;SDS011;2760;50.000;9.194;2023-04-24T12:08:46;6.57;;;4.07;;
5475;SDS011;2760;50.000;9.194;2023-04-24T12:11:14;6.90;;;3.80;;
5475;SDS011;2760;50.000;9.194;2023-04-24T12:13:44;3.47;;;2.90;;
5475;SDS011;2760;50.000;9.194;2023-04-24T12:16:11;3.53;;;3.23;;
5475;SDS011;2760;50.000;9.194;2023-04-24T12:18:43;2.90;;;2.70;;
5475;SDS011;2760;50.000;9.194;2023-04-24T12:21:19;7.80;;;4.50;;
5475;SDS011;2760;50.000;9.194;2023-04-24T12:23:47;5.73;;;2.40;;
5475;SDS011;2760;50.000;9.194;2023-04-24T12:26:16;4.10;;;2.30;;
5475;SDS011;2760;50.000;9.194;2023-04-24T12:28:45;6.20;;;3.33;;
5475;SDS011;2760;50.000;9.194;2023-04-24T12:31:14;5.00;;;3.43;;
5475;SDS011;2760;50.000;9.194;2023-04-24T12:33:43;3.80;;;3.40;;
5475;SDS011;2760;50.000;9.194;2023-04-24T12:36:10;4.50;;;4.10;;
5475;SDS011;2760;50.000;9.194;2023-04-24T12:38:43;4.67;;;3.30;;
5475;SDS011;2760;50.000;9.194;2023-04-24T12:41:12;5.27;;;4.00;;
5475;SDS011;2760;50.000;9.194;2023-04-24T12:43:50;4.23;;;3.83;;
5475;SDS011;2760;50.000;9.194;2023-04-24T12:46:17;5.33;;;4.67;;
5475;SDS011;2760;50.000;9.194;2023-04-24T12:48:44;6.17;;;5.10;;
5475;SDS011;2760;50.000;9.194;2023-04-24T12:51:12;6.50;;;4.73;;
5475;SDS011;2760;50.000;9.194;2023-04-24T12:53:39;8.10;;;4.40;;
5475;SDS011;2760;50.000;9.194;2023-04-24T12:56:08;9.23;;;5.07;;
5475;SDS011;2760;50.000;9.194;2023-04-24T12:58:35;7.87;;;4.47;;
5475;SDS011;2760;50.000;9.194;2023-04-24T13:01:02;5.03;;;3.93;;
5475;SDS011;2760;50.000;9.194;2023-04-24T13:03:29;5.47;;;3.90;;
5475;SDS011;2760;50.000;9.194;2023-04-24T13:05:59;6.20;;;4.77;;
5475;SDS011;2760;50.000;9.194;2023-04-24T13:08:26;7.37;;;4.50;;
5475;SDS011;2760;50.000;9.194;2023-04-24T13:10:56;8.33;;;5.50;;
5475;SDS011;2760;50.000;9.194;2023-04-24T13:13:24;6.33;;;4.77;;
5475;SDS011;2760;50.000;9.194;2023-04-24T13:15:51;4.73;;;4.33;;
5475;SDS011;2760;50.000;9.194;2023-04-24T13:18:18;6.30;;;4.63;;
5475;SDS011;2760;50.000;9.194;2023-04-24T13:20:45;12.20;;;5.80;;
5475;SDS011;2760;50.000;9.194;2023-04-24T13:23:13;15.43;;;5.30;;
5475;SDS011;2760;50.000;9.194;2023-04-24T13:25:40;7.90;;;5.30;;
5475;SDS011;2760;50.000;9.194;2023-04-24T13:28:07;5.43;;;4.20;;
5475;SDS011;2760;50.000;9.194;2023-04-24T13:30:36;7.47;;;3.70;;
5475;SDS011;2760;50.000;9.194;2023-04-24T13:33:03;4.57;;;4.17;;
5475;SDS011;2760;50.000;9.194;2023-04-24T13:35:30;10.13;;;5.30;;
5475;SDS011;2760;50.000;9.194;2023-04-24T13:37:57;9.40;;;3.97;;
5475;SDS011;2760;50.000;9.194;2023-04-24T13:40:26;4.73;;;3.90;;
5475;SDS011;2760;50.000;9.194;2023-04-24T13:42:53;4.50;;;3.90;;
5475;SDS011;2760;50.000;9.194;2023-04-24T13:45:20;9.20;;;4.57;;
5475;SDS011;2760;50.000;9.194;2023-04-24T13:47:49;9.13;;;5.07;;
5475;SDS011;2760;50.000;9.194;2023-04-24T13:50:16;5.27;;;4.40;;
5475;SDS011;2760;50.000;9.194;2023-04-24T13:52:43;5.53;;;4.00;;
5475;SDS011;2760;50.000;9.194;2023-04-24T13:55:10;6.30;;;4.10;;
5475;SDS011;2760;50.000;9.194;2023-04-24T13:57:39;6.47;;;3.90;;
5475;SDS011;2760;50.000;9.194;2023-04-24T14:00:06;8.40;;;4.43;;
5475;SDS011;2760;50.000;9.194;2023-04-24T14:02:35;6.80;;;4.60;;
5475;SDS011;2760;50.000;9.194;2023-04-24T14:05:05;6.10;;;3.77;;
5475;SDS011;2760;50.000;9.194;2023-04-24T14:07:32;5.40;;;4.50;;
5475;SDS011;2760;50.000;9.194;2023-04-24T14:09:59;7.97;;;5.83;;
5475;SDS011;2760;50.000;9.194;2023-04-24T14:12:26;8.40;;;5.30;;
5475;SDS011;2760;50.000;9.194;2023-04-24T14:14:54;9.43;;;5.72;;
5475;SDS011;2760;50.000;9.194;2023-04-24T14:17:21;8.30;;;5.27;;
5475;SDS011;2760;50.000;9.194;2023-04-24T14:19:48;6.77;;;5.07;;
5475;SDS011;2760;50.000;9.194;2023-04-24T14:22:16;8.40;;;4.87;;
5475;SDS011;2760;50.000;9.194;2023-04-24T14:24:43;7.40;;;5.50;;
5475;SDS011;2760;50.000;9.194;2023-04-24T14:27:10;8.10;;;4.77;;
5475;SDS011;2760;50.000;9.194;2023-04-24T14:29:37;6.53;;;4.67;;
5475;SDS011;2760;50.000;9.194;2023-04-24T14:32:04;8.93;;;4.63;;
5475;SDS011;2760;50.000;9.194;2023-04-24T14:34:31;14.60;;;5.80;;
5475;SDS011;2760;50.000;9.194;2023-04-24T14:36:58;6.30;;;5.03;;
5475;SDS011;2760;50.000;9.194;2023-04-24T14:39:27;7.77;;;5.00;;
5475;SDS011;2760;50.000;9.194;2023-04-24T14:41:54;4.23;;;3.70;;
5475;SDS011;2760;50.000;9.194;2023-04-24T14:44:21;4.90;;;3.77;;
5475;SDS011;2760;50.000;9.194;2023-04-24T14:46:48;4.63;;;3.47;;
5475;SDS011;2760;50.000;9.194;2023-04-24T14:49:16;6.67;;;3.83;;
5475;SDS011;2760;50.000;9.194;2023-04-24T14:51:44;3.63;;;3.23;;
5475;SDS011;2760;50.000;9.194;2023-04-24T14:54:11;7.23;;;4.00;;
5475;SDS011;2760;50.000;9.194;2023-04-24T14:56:39;6.10;;;3.93;;
5475;SDS011;2760;50.000;9.194;2023-04-24T14:59:08;4.20;;;3.80;;
5475;SDS011;2760;50.000;9.194;2023-04-24T15:01:35;4.70;;;3.90;;
5475;SDS011;2760;50.000;9.194;2023-04-24T15:04:02;5.37;;;3.73;;
5475;SDS011;2760;50.000;9.194;2023-04-24T15:06:29;4.60;;;3.60;;
5475;SDS011;2760;50.000;9.194;2023-04-24T15:08:58;4.70;;;3.60;;
5475;SDS011;2760;50.000;9.194;2023-04-24T15:11:25;3.60;;;3.30;;
5475;SDS011;2760;50.000;9.194;2023-04-24T15:13:55;5.20;;;3.57;;
5475;SDS011;2760;50.000;9.194;2023-04-24T15:16:23;9.97;;;4.30;;
5475;SDS011;2760;50.000;9.194;2023-04-24T15:18:50;5.13;;;3.60;;
5475;SDS011;2760;50.000;9.194;2023-04-24T15:21:17;12.53;;;3.77;;
5475;SDS011;2760;50.000;9.194;2023-04-24T15:23:45;5.23;;;3.87;;
5475;SDS011;2760;50.000;9.194;2023-04-24T15:26:13;6.23;;;3.87;;
5475;SDS011;2760;50.000;9.194;2023-04-24T15:28:40;7.90;;;4.90;;